Time;durP1;ratioP1;P1;durP2;ratioP2;P2;SDS_P1;SDS_P2;PMS_P1;PMS_P2;Temp;Humidity;BMP_temperature;BMP_pressure;BME280_temperature;BME280_humidity;BME280_pressure;Samples;Min_cycle;Max_cycle;Signal;HPM_P1;HPM_P2
2023/04/28 00:02:14;;;;;;;2.63;1.70;;;;;;;-145.69;100.00;52381.00;5095366;28;20202;-80
2023/04/28 00:04:41;;;;;;;2.63;1.90;;;;;;;-145.69;100.00;52359.22;5079912;28;20233;-79
2023/04/28 00:07:09;;;;;;;3.67;1.73;;;;;;;-145.69;100.00;52383.00;5075125;28;20309;-80
2023/04/28 00:09:35;;;;;;;2.97;1.50;;;;;;;-145.69;100.00;52394.88;5080129;28;20243;-80
2023/04/28 00:12:02;;;;;;;1.70;1.33;;;;;;;-145.69;100.00;52377.06;5095172;28;20652;-81
2023/04/28 00:14:28;;;;;;;4.23;1.60;;;;;;;-145.69;100.00;52353.28;5095169;28;20259;-80
2023/04/28 00:16:56;;;;;;;3.37;1.60;;;;;;;-145.69;100.00;52388.94;5095132;28;20221;-80
2023/04/28 00:19:22;;;;;;;2.67;1.80;;;;;;;-145.69;100.00;52388.94;5094930;28;20218;-80
2023/04/28 00:21:49;;;;;;;5.77;1.67;;;;;;;-145.69;100.00;52377.06;5095041;28;20198;-80
2023/04/28 00:24:17;;;;;;;2.60;1.67;;;;;;;-145.69;100.00;52371.13;5094925;28;20202;-80
2023/04/28 00:26:43;;;;;;;1.27;1.17;;;;;;;-145.69;100.00;52349.31;5094810;28;20194;-81
2023/04/28 00:29:10;;;;;;;2.73;1.70;;;;;;;-145.69;100.00;52361.22;5094691;28;20202;-80
2023/04/28 00:31:36;;;;;;;3.83;1.65;;;;;;;-145.69;100.00;52402.78;5093933;28;20784;-79
2023/04/28 00:34:03;;;;;;;4.83;1.67;;;;;;;-145.69;100.00;52347.34;5094525;28;20198;-80
2023/04/28 00:36:31;;;;;;;5.17;1.60;;;;;;;-145.69;100.00;52317.66;5094704;28;20195;-80
2023/04/28 00:38:57;;;;;;;2.87;1.60;;;;;;;-145.69;100.00;52408.75;5094663;28;20251;-80
2023/04/28 00:41:25;;;;;;;3.07;1.50;;;;;;;-145.69;100.00;52341.41;5094646;28;20251;-80
2023/04/28 00:43:51;;;;;;;3.33;1.57;;;;;;;-145.69;100.00;52386.97;5094338;28;20277;-80
2023/04/28 00:46:22;;;;;;;3.47;1.43;;;;;;;-145.69;100.00;52353.28;5094171;28;20206;-80
2023/04/28 00:48:49;;;;;;;3.67;1.70;;;;;;;-145.69;100.00;52379.03;5094268;28;20649;-80
2023/04/28 00:51:16;;;;;;;1.87;1.53;;;;;;;-145.69;100.00;52373.09;5094274;28;20270;-79
2023/04/28 00:53:43;;;;;;;1.90;1.53;;;;;;;-145.69;100.00;52384.97;5094552;28;20198;-80
2023/04/28 00:56:10;;;;;;;4.37;1.40;;;;;;;-145.69;100.00;52361.22;5094486;28;20644;-80
2023/04/28 00:58:38;;;;;;;2.73;1.50;;;;;;;-145.69;100.00;52355.28;5093965;28;20664;-80
2023/04/28 01:01:05;;;;;;;3.77;1.50;;;;;;;-145.69;100.00;52375.06;5093750;28;20283;-80
2023/04/28 01:03:34;;;;;;;1.43;1.30;;;;;;;-145.69;100.00;52377.06;5094159;28;20229;-80
2023/04/28 01:06:01;;;;;;;3.67;1.57;;;;;;;-145.69;100.00;52404.78;5093942;28;20255;-80
2023/04/28 01:08:29;;;;;;;3.97;1.40;;;;;;;-145.69;100.00;52406.75;5094277;28;20198;-80
2023/04/28 01:10:56;;;;;;;5.27;1.60;;;;;;;-145.69;100.00;52373.09;5094001;28;20254;-81
2023/04/28 01:13:22;;;;;;;2.20;1.47;;;;;;;-145.69;100.00;52371.13;5093972;28;20209;-80
2023/04/28 01:15:50;;;;;;;3.28;1.58;;;;;;;-145.69;100.00;52347.34;5092591;28;20438;-80
2023/04/28 01:18:17;;;;;;;3.73;1.50;;;;;;;-145.69;100.00;52384.97;5093722;28;20198;-80
2023/04/28 01:20:44;;;;;;;3.17;1.60;;;;;;;-145.69;100.00;52388.94;5092427;28;20237;-80
2023/04/28 01:23:12;;;;;;;1.57;1.30;;;;;;;-145.69;100.00;52384.97;5093049;28;20205;-80
2023/04/28 01:25:40;;;;;;;2.30;1.20;;;;;;;-145.69;100.00;52379.03;5093190;28;20186;-80
2023/04/28 01:28:06;;;;;;;3.22;1.70;;;;;;;-145.69;100.00;52384.97;5092874;28;20534;-80
2023/04/28 01:30:32;;;;;;;2.33;1.13;;;;;;;-145.69;100.00;52361.22;5093714;28;20199;-80
2023/04/28 01:33:02;;;;;;;2.37;1.53;;;;;;;-145.69;100.00;52345.38;5092625;28;20545;-80
2023/04/28 01:35:28;;;;;;;2.10;1.60;;;;;;;-145.69;100.00;52388.94;5093452;28;20706;-80
2023/04/28 01:37:55;;;;;;;4.90;1.70;;;;;;;-145.69;100.00;52365.16;5093494;28;20194;-80
2023/04/28 01:40:22;;;;;;;4.93;1.40;;;;;;;-145.69;99.56;52383.00;5093478;28;20291;-79
2023/04/28 01:42:50;;;;;;;1.80;1.30;;;;;;;-145.69;99.63;52361.22;5093589;28;20587;-80
2023/04/28 01:45:20;;;;;;;2.00;1.43;;;;;;;-145.69;100.00;52371.13;5092689;28;20198;-80
2023/04/28 01:47:47;;;;;;;2.58;1.55;;;;;;;-145.69;100.00;52355.28;5093633;28;20202;-81
2023/04/28 01:50:15;;;;;;;2.25;1.40;;;;;;;-145.69;100.00;52373.09;5092943;28;20202;-81
2023/04/28 01:52:42;;;;;;;1.30;1.20;;;;;;;-145.69;100.00;52384.97;5093176;28;20209;-81
2023/04/28 01:55:09;;;;;;;3.47;1.40;;;;;;;-145.69;100.00;52337.44;5093125;28;20206;-80
2023/04/28 01:57:35;;;;;;;2.75;1.30;;;;;;;-145.69;100.00;52361.22;5093189;28;20357;-80
2023/04/28 02:00:04;;;;;;;1.53;1.37;;;;;;;-145.69;100.00;52347.34;5093274;28;20225;-80
2023/04/28 02:02:31;;;;;;;1.57;1.30;;;;;;;-145.69;100.00;52386.97;5088313;28;20190;-80
2023/04/28 02:04:57;;;;;;;3.38;1.13;;;;;;;-145.69;100.00;52341.41;5092814;28;20927;-80
2023/04/28 02:07:24;;;;;;;2.70;1.20;;;;;;;-145.69;100.00;52357.25;5092520;28;20194;-80
2023/04/28 02:09:50;;;;;;;2.77;1.43;;;;;;;-145.69;100.00;52373.09;5092881;28;20206;-80
2023/04/28 02:12:17;;;;;;;2.95;1.42;;;;;;;-145.69;100.00;52355.28;5092817;28;20648;-80
2023/04/28 02:14:43;;;;;;;2.75;1.50;;;;;;;-145.69;100.00;52357.25;5093171;28;20251;-80
2023/04/28 02:17:11;;;;;;;3.10;1.50;;;;;;;-145.69;100.00;52375.06;5093077;28;20204;-80
2023/04/28 02:19:38;;;;;;;2.37;1.30;;;;;;;-145.69;100.00;52365.16;5092980;28;20206;-80
2023/04/28 02:22:06;;;;;;;2.83;1.27;;;;;;;-145.69;100.00;52359.22;5092717;28;20220;-80
2023/04/28 02:24:36;;;;;;;3.60;1.37;;;;;;;-145.69;100.00;52377.06;5092882;28;20202;-80
2023/04/28 02:27:03;;;;;;;4.20;1.27;;;;;;;-145.69;100.00;52373.09;5092821;28;20231;-81
2023/04/28 02:29:30;;;;;;;2.73;1.67;;;;;;;-145.69;100.00;52381.00;5092557;28;20197;-80
2023/04/28 02:31:57;;;;;;;2.20;1.43;;;;;;;-145.69;100.00;52361.22;5092920;28;20198;-80
2023/04/28 02:34:25;;;;;;;4.50;1.40;;;;;;;-145.69;100.00;52367.16;5095803;28;20207;-81
2023/04/28 02:36:54;;;;;;;2.03;1.47;;;;;;;-145.69;100.00;52377.06;5096600;28;20198;-80
2023/04/28 02:39:21;;;;;;;2.77;1.40;;;;;;;-145.69;100.00;52343.38;5097006;28;20193;-80
2023/04/28 02:41:48;;;;;;;3.63;2.00;;;;;;;-145.69;100.00;52333.47;5096501;28;20228;-80
2023/04/28 02:44:14;;;;;;;3.90;1.60;;;;;;;-145.69;100.00;52343.38;5096853;28;20198;-80
2023/04/28 02:46:41;;;;;;;1.92;1.50;;;;;;;-145.69;100.00;52363.19;5096809;28;20204;-80
2023/04/28 02:49:07;;;;;;;2.38;1.40;;;;;;;-145.69;100.00;52357.25;5096538;28;20679;-81
2023/04/28 02:51:37;;;;;;;1.73;1.50;;;;;;;-145.69;100.00;52337.44;5096696;28;20675;-81
2023/04/28 02:54:06;;;;;;;2.00;1.30;;;;;;;-145.69;100.00;52359.22;5096769;28;20202;-81
2023/04/28 02:56:33;;;;;;;3.30;1.37;;;;;;;-145.69;100.00;52371.13;5096824;28;20202;-81
2023/04/28 02:59:00;;;;;;;2.03;1.27;;;;;;;-145.69;100.00;52349.31;5095874;28;20194;-81
2023/04/28 03:01:26;;;;;;;2.13;1.40;;;;;;;-145.69;100.00;52357.25;5095809;28;20225;-82
2023/04/28 03:03:53;;;;;;;4.97;1.70;;;;;;;-145.69;100.00;52377.06;5096095;28;20226;-81
2023/04/28 03:06:19;;;;;;;8.13;1.40;;;;;;;-145.69;100.00;52369.13;5096482;28;20196;-82
2023/04/28 03:08:47;;;;;;;2.03;1.50;;;;;;;-145.69;100.00;52349.31;5096527;28;20559;-81
2023/04/28 03:11:15;;;;;;;6.27;1.70;;;;;;;-145.69;100.00;52361.22;5096368;28;20205;-82
2023/04/28 03:13:41;;;;;;;2.73;2.03;;;;;;;-145.69;100.00;52371.13;5096619;28;20197;-82
2023/04/28 03:16:08;;;;;;;1.90;1.53;;;;;;;-145.69;100.00;52406.75;5096446;28;20657;-82
2023/04/28 03:18:34;;;;;;;3.47;1.67;;;;;;;-145.69;100.00;52371.13;5095924;28;20268;-82
2023/04/28 03:21:01;;;;;;;2.07;1.60;;;;;;;-145.69;100.00;52365.16;5096096;28;20238;-82
2023/04/28 03:23:27;;;;;;;3.43;1.80;;;;;;;-145.69;100.00;52381.00;5096434;28;20232;-82
2023/04/28 03:25:55;;;;;;;6.53;2.10;;;;;;;-145.69;100.00;52373.09;5095223;28;20472;-82
2023/04/28 03:28:22;;;;;;;4.83;2.40;;;;;;;-145.69;100.00;52381.00;5096096;28;20198;-82
2023/04/28 03:30:48;;;;;;;5.83;2.30;;;;;;;-145.69;100.00;52361.22;5095778;28;20212;-81
2023/04/28 03:33:15;;;;;;;3.03;2.47;;;;;;;-145.69;100.00;52373.09;5095983;28;20198;-83
2023/04/28 03:35:42;;;;;;;3.60;2.23;;;;;;;-145.69;100.00;52377.06;5096268;28;20598;-82
2023/04/28 03:38:08;;;;;;;4.83;2.70;;;;;;;-145.69;100.00;52410.72;5096045;28;20204;-82
2023/04/28 03:40:35;;;;;;;7.03;2.00;;;;;;;-145.69;100.00;52396.84;5095815;28;20235;-82
2023/04/28 03:43:03;;;;;;;2.87;1.80;;;;;;;-145.69;100.00;52369.13;5095862;28;20297;-82
2023/04/28 03:45:30;;;;;;;3.40;2.10;;;;;;;-145.69;100.00;52394.88;5094355;28;20205;-83
2023/04/28 03:47:56;;;;;;;2.77;2.10;;;;;;;-145.69;100.00;52396.84;5095801;28;20661;-83
2023/04/28 03:50:23;;;;;;;6.57;2.30;;;;;;;-145.69;100.00;52392.91;5095005;28;20679;-82
2023/04/28 03:52:50;;;;;;;5.73;2.67;;;;;;;-145.69;100.00;52388.94;5095600;28;20224;-81
2023/04/28 03:55:16;;;;;;;4.50;2.53;;;;;;;-145.69;100.00;52416.66;5095516;28;20198;-82
2023/04/28 03:57:43;;;;;;;6.57;2.70;;;;;;;-145.69;100.00;52379.03;5095148;28;20560;-82
2023/04/28 04:00:13;;;;;;;3.77;2.57;;;;;;;-145.69;100.00;52402.78;5094938;28;20200;-82
2023/04/28 04:02:39;;;;;;;6.30;2.90;;;;;;;-145.69;100.00;52402.78;5086793;28;20213;-83
2023/04/28 04:05:06;;;;;;;5.97;3.00;;;;;;;-145.69;100.00;52394.88;5095169;28;20241;-81
2023/04/28 04:07:33;;;;;;;6.07;2.97;;;;;;;-145.69;100.00;52394.88;5095272;28;20255;-81
2023/04/28 04:09:59;;;;;;;5.57;3.30;;;;;;;-145.69;100.00;52400.81;5095342;28;20202;-82
2023/04/28 04:12:26;;;;;;;8.27;3.70;;;;;;;-145.69;100.00;52396.84;5095157;28;20649;-82
2023/04/28 04:14:52;;;;;;;6.30;3.40;;;;;;;-145.69;100.00;52406.75;5093610;28;20198;-81
2023/04/28 04:17:20;;;;;;;7.17;3.17;;;;;;;-145.69;100.00;52412.69;5094609;28;20548;-81
2023/04/28 04:19:47;;;;;;;8.13;3.40;;;;;;;-145.69;100.00;52400.81;5095118;28;20202;-81
2023/04/28 04:22:13;;;;;;;4.77;2.70;;;;;;;-145.69;100.00;52384.97;5094549;28;20229;-80
2023/04/28 04:24:40;;;;;;;5.03;3.23;;;;;;;-145.69;100.00;52396.84;5094738;28;20191;-80
2023/04/28 04:27:06;;;;;;;5.57;3.57;;;;;;;-145.69;100.00;52426.56;5094859;28;20210;-81
2023/04/28 04:29:33;;;;;;;7.40;3.90;;;;;;;-145.69;100.00;52404.78;5095039;28;20209;-81
2023/04/28 04:31:59;;;;;;;9.03;3.67;;;;;;;-145.69;100.00;52394.88;5094682;28;20201;-80
2023/04/28 04:34:27;;;;;;;9.83;3.60;;;;;;;-145.69;100.00;52408.75;5094751;28;20198;-81
2023/04/28 04:36:53;;;;;;;7.57;3.87;;;;;;;-145.69;100.00;52406.75;5094807;28;20380;-80
2023/04/28 04:39:20;;;;;;;7.53;3.50;;;;;;;-145.69;100.00;52408.75;5094762;28;20205;-80
2023/04/28 04:41:47;;;;;;;9.73;5.03;;;;;;;-145.69;100.00;52418.63;5094428;28;20230;-79
2023/04/28 04:44:13;;;;;;;8.93;4.07;;;;;;;-145.69;100.00;52400.81;5094535;28;20197;-80
2023/04/28 04:46:40;;;;;;;7.47;4.10;;;;;;;-145.69;100.00;52384.97;5094487;28;20256;-80
2023/04/28 04:49:06;;;;;;;6.63;3.97;;;;;;;-145.69;100.00;52402.78;5094486;28;20679;-80
2023/04/28 04:51:34;;;;;;;5.30;3.40;;;;;;;-145.69;100.00;52396.84;5094041;28;20696;-81
2023/04/28 04:54:00;;;;;;;8.47;4.10;;;;;;;-145.69;100.00;52394.88;5094133;28;20665;-80
2023/04/28 04:56:27;;;;;;;9.67;4.80;;;;;;;-145.69;100.00;52408.75;5094093;28;20224;-80
2023/04/28 04:58:53;;;;;;;8.47;4.30;;;;;;;-145.69;100.00;52412.69;5094624;28;20199;-79
2023/04/28 05:01:20;;;;;;;6.60;3.80;;;;;;;-145.69;100.00;52412.69;5094001;28;20222;-79
2023/04/28 05:03:46;;;;;;;6.60;3.50;;;;;;;-145.69;100.00;52424.59;5093676;28;20255;-79
2023/04/28 05:06:13;;;;;;;9.53;3.63;;;;;;;-145.69;100.00;52416.66;5094260;28;20198;-79
2023/04/28 05:08:41;;;;;;;8.53;3.90;;;;;;;-145.69;100.00;52412.69;5093989;28;20205;-79
2023/04/28 05:11:07;;;;;;;8.20;3.93;;;;;;;-145.69;100.00;52410.72;5093621;28;20660;-79
2023/04/28 05:13:34;;;;;;;5.50;3.53;;;;;;;-145.69;100.00;52442.41;5093764;28;20215;-79
2023/04/28 05:16:00;;;;;;;6.27;4.00;;;;;;;-145.69;100.00;52392.91;5094153;28;20205;-79
2023/04/28 05:18:27;;;;;;;6.73;3.60;;;;;;;-145.69;100.00;52408.75;5093754;28;20661;-80
2023/04/28 05:20:53;;;;;;;4.60;3.30;;;;;;;-145.69;100.00;52396.84;5093710;28;20230;-80
2023/04/28 05:23:20;;;;;;;5.63;3.53;;;;;;;-145.69;100.00;52398.84;5093366;28;20225;-80
2023/04/28 05:25:47;;;;;;;7.10;3.47;;;;;;;-145.69;100.00;52404.78;5094000;28;20206;-79
2023/04/28 05:28:14;;;;;;;9.53;3.80;;;;;;;-145.69;100.00;52392.91;5093988;28;20205;-80
2023/04/28 05:30:42;;;;;;;6.30;3.37;;;;;;;-145.69;100.00;52392.91;5093825;28;20198;-80
2023/04/28 05:33:08;;;;;;;6.27;3.30;;;;;;;-145.69;100.00;52384.97;5093673;28;20205;-79
2023/04/28 05:35:36;;;;;;;7.17;3.20;;;;;;;-145.69;100.00;52410.72;5093313;28;20228;-80
2023/04/28 05:38:02;;;;;;;6.97;2.80;;;;;;;-145.69;100.00;52396.84;5093452;28;20652;-80
2023/04/28 05:40:29;;;;;;;4.40;3.00;;;;;;;-145.69;100.00;52400.81;5093412;28;20206;-81
2023/04/28 05:42:57;;;;;;;3.80;2.30;;;;;;;-145.69;100.00;52402.78;5093233;28;20209;-80
2023/04/28 05:45:24;;;;;;;4.23;2.67;;;;;;;-145.69;100.00;52428.53;5092386;28;20194;-81
2023/04/28 05:47:50;;;;;;;3.20;2.33;;;;;;;-145.69;100.00;52416.66;5093331;28;20731;-80
2023/04/28 05:50:17;;;;;;;5.53;2.60;;;;;;;-145.69;100.00;52406.75;5093460;28;20679;-81
2023/04/28 05:52:43;;;;;;;5.90;2.60;;;;;;;-145.69;100.00;52398.84;5092982;28;20198;-80
2023/04/28 05:55:10;;;;;;;4.50;2.30;;;;;;;-145.69;100.00;52383.00;5093365;28;20202;-79
2023/04/28 05:57:37;;;;;;;3.87;2.20;;;;;;;-145.69;100.00;52369.13;5093155;28;20202;-81
2023/04/28 06:00:06;;;;;;;2.83;1.83;;;;;;;-145.69;100.00;52381.00;5092196;28;20205;-82
2023/04/28 06:02:32;;;;;;;3.40;2.40;;;;;;;-145.69;100.00;52392.91;5088169;28;20223;-82
2023/04/28 06:04:59;;;;;;;4.17;2.57;;;;;;;-145.69;100.00;52396.84;5072630;28;20239;-81
2023/04/28 06:07:25;;;;;;;4.53;1.93;;;;;;;-145.69;100.00;52400.81;5072818;28;20206;-81
2023/04/28 06:09:52;;;;;;;2.43;1.73;;;;;;;-145.69;100.00;52381.00;5078523;28;20200;-81
2023/04/28 06:12:18;;;;;;;2.43;1.77;;;;;;;-145.69;100.00;52416.66;5092936;28;20682;-80
2023/04/28 06:14:45;;;;;;;3.53;2.30;;;;;;;-145.69;100.00;52418.63;5092673;28;20281;-81
2023/04/28 06:17:13;;;;;;;2.33;1.73;;;;;;;-145.69;100.00;52406.75;5093143;28;20590;-81
2023/04/28 06:19:39;;;;;;;2.63;2.07;;;;;;;-145.69;100.00;52398.84;5092979;28;20205;-82
2023/04/28 06:22:05;;;;;;;3.00;2.10;;;;;;;-145.69;100.00;52390.91;5092818;28;20226;-82
2023/04/28 06:24:32;;;;;;;4.97;2.00;;;;;;;-145.69;100.00;52396.84;5092948;28;20201;-81
2023/04/28 06:26:58;;;;;;;2.17;1.70;;;;;;;-145.69;100.00;52414.69;5092729;28;20198;-80
2023/04/28 06:29:26;;;;;;;3.73;2.10;;;;;;;-145.69;100.00;52410.72;5093039;28;20202;-81
2023/04/28 06:31:56;;;;;;;2.70;1.92;;;;;;;-145.69;100.00;52416.66;5092925;28;20282;-81
2023/04/28 06:34:26;;;;;;;2.57;1.70;;;;;;;-145.69;100.00;52420.63;5092976;28;20190;-81
2023/04/28 06:36:52;;;;;;;2.57;1.73;;;;;;;-145.69;100.00;52381.00;5092998;28;20551;-81
2023/04/28 06:39:19;;;;;;;2.33;1.50;;;;;;;-145.69;100.00;52408.75;5092959;28;20206;-82
2023/04/28 06:41:46;;;;;;;2.90;2.20;;;;;;;-145.69;100.00;52410.72;5092762;28;20256;-82
2023/04/28 06:44:12;;;;;;;2.58;1.55;;;;;;;-145.69;100.00;52404.78;5091976;28;20198;-81
2023/04/28 06:46:39;;;;;;;3.28;2.10;;;;;;;-145.69;100.00;52404.78;5092772;28;20289;-81
2023/04/28 06:49:05;;;;;;;2.85;1.88;;;;;;;-145.69;100.00;52392.91;5092541;28;20205;-81
2023/04/28 06:51:33;;;;;;;2.90;1.70;;;;;;;-145.69;100.00;52408.75;5092858;28;20298;-81
2023/04/28 06:54:00;;;;;;;2.25;1.70;;;;;;;-145.69;100.00;52384.97;5092790;28;20568;-80
2023/04/28 06:56:26;;;;;;;3.13;1.97;;;;;;;-145.69;100.00;52373.09;5092626;28;20198;-80
2023/04/28 06:58:55;;;;;;;3.33;1.73;;;;;;;-145.69;100.00;52400.81;5092368;28;20190;-80
2023/04/28 07:01:21;;;;;;;4.32;1.80;;;;;;;-145.69;100.00;52396.84;5092489;28;20319;-81
2023/04/28 07:03:48;;;;;;;1.90;1.60;;;;;;;-145.69;100.00;52383.00;5092234;28;20308;-81
2023/04/28 07:06:15;;;;;;;1.77;1.40;;;;;;;-145.69;100.00;52381.00;5092738;28;20198;-80
2023/04/28 07:08:43;;;;;;;2.47;1.50;;;;;;;-145.69;100.00;52381.00;5092314;28;20202;-79
2023/04/28 07:11:10;;;;;;;2.00;1.40;;;;;;;-145.69;100.00;52379.03;5092007;28;20198;-81
2023/04/28 07:13:36;;;;;;;1.80;1.52;;;;;;;-145.69;100.00;52404.78;5092141;28;20281;-81
2023/04/28 07:16:04;;;;;;;3.10;1.15;;;;;;;-145.69;100.00;52361.22;5092023;28;20530;-80
2023/04/28 07:18:30;;;;;;;2.28;1.08;;;;;;;-145.69;100.00;52381.00;5092477;28;20198;-80
2023/04/28 07:20:57;;;;;;;2.00;1.17;;;;;;;-145.69;100.00;52373.09;5095701;28;20190;-80
2023/04/28 07:23:23;;;;;;;1.40;1.20;;;;;;;-145.69;100.00;52377.06;5096116;28;20641;-81
2023/04/28 07:25:51;;;;;;;2.15;1.30;;;;;;;-145.69;100.00;52392.91;5096340;28;20296;-81
2023/04/28 07:28:19;;;;;;;1.95;1.20;;;;;;;-145.69;100.00;52384.97;5096068;28;20198;-80
2023/04/28 07:30:45;;;;;;;1.98;1.17;;;;;;;-145.69;100.00;52353.28;5095382;28;20194;-81
2023/04/28 07:33:12;;;;;;;1.73;1.20;;;;;;;-145.69;100.00;52392.91;5096039;28;20197;-81
2023/04/28 07:35:38;;;;;;;1.77;1.58;;;;;;;-145.69;100.00;52404.78;5095241;28;20649;-81
2023/04/28 07:38:06;;;;;;;2.72;1.65;;;;;;;-145.69;100.00;52381.00;5095955;28;20660;-80
2023/04/28 07:40:32;;;;;;;1.48;1.35;;;;;;;-145.69;100.00;52398.84;5094922;28;20197;-81
2023/04/28 07:43:00;;;;;;;1.77;1.27;;;;;;;-145.69;100.00;52377.06;5095651;28;20225;-80
2023/04/28 07:45:27;;;;;;;1.50;1.17;;;;;;;-145.69;100.00;52396.84;5095947;28;20285;-81
2023/04/28 07:47:53;;;;;;;3.47;1.20;;;;;;;-145.69;100.00;52377.06;5095688;28;20552;-81
2023/04/28 07:50:20;;;;;;;2.25;1.50;;;;;;;-145.69;100.00;52404.78;5095562;28;20202;-81
2023/04/28 07:52:46;;;;;;;2.97;1.33;;;;;;;-145.69;100.00;52404.78;5095451;28;20683;-82
2023/04/28 07:55:13;;;;;;;4.25;1.45;;;;;;;-145.69;100.00;52392.91;5095362;28;20201;-81
2023/04/28 07:57:41;;;;;;;1.67;1.27;;;;;;;-145.69;100.00;52384.97;5095403;28;20202;-79
2023/04/28 08:00:10;;;;;;;2.10;1.38;;;;;;;-145.69;100.00;52373.09;5095441;28;20202;-81
2023/04/28 08:02:37;;;;;;;4.80;1.40;;;;;;;-145.69;100.00;52392.91;5094565;28;20302;-81
2023/04/28 08:05:05;;;;;;;3.35;1.65;;;;;;;-145.69;100.00;52408.75;5094850;28;20249;-81
2023/04/28 08:07:32;;;;;;;3.33;1.47;;;;;;;-145.69;100.00;52398.84;5094715;28;20190;-79
2023/04/28 08:09:58;;;;;;;2.15;1.63;;;;;;;-145.69;100.00;52373.09;5077028;28;20595;-81
2023/04/28 08:12:25;;;;;;;3.00;1.50;;;;;;;-145.69;100.00;52412.69;5094828;28;20561;-81
2023/04/28 08:14:51;;;;;;;2.43;0.90;;;;;;;-145.69;100.00;52388.94;5095165;28;20198;-80
2023/04/28 08:17:19;;;;;;;1.27;0.82;;;;;;;-145.69;100.00;52424.59;5095175;28;20281;-83
2023/04/28 08:19:46;;;;;;;1.25;1.00;;;;;;;-145.69;100.00;52394.88;5095062;28;20546;-82
2023/04/28 08:22:13;;;;;;;1.15;0.85;;;;;;;-145.69;100.00;52379.03;5094644;28;20253;-82
2023/04/28 08:24:39;;;;;;;1.92;1.08;;;;;;;-145.69;100.00;52400.81;5095060;28;20194;-81
2023/04/28 08:27:06;;;;;;;2.45;1.50;;;;;;;-145.69;100.00;52377.06;5095333;28;20201;-82
2023/04/28 08:29:33;;;;;;;1.90;1.08;;;;;;;-145.69;100.00;52416.66;5094755;28;20224;-83
2023/04/28 08:32:01;;;;;;;0.93;0.63;;;;;;;-145.69;100.00;52361.22;5094478;28;20198;-82
2023/04/28 08:34:28;;;;;;;0.82;0.77;;;;;;;-145.69;100.00;52353.28;5094809;28;20233;-82
2023/04/28 08:36:55;;;;;;;1.02;0.93;;;;;;;-145.69;100.00;52384.97;5094837;28;20284;-81
2023/04/28 08:39:22;;;;;;;2.38;1.33;;;;;;;-145.69;100.00;52406.75;5094749;28;20565;-81
2023/04/28 08:41:49;;;;;;;1.00;1.00;;;;;;;-145.69;100.00;52404.78;5094397;28;20222;-81
2023/04/28 08:44:16;;;;;;;0.98;0.80;;;;;;;-145.69;100.00;52412.69;5094786;28;20256;-81
2023/04/28 08:46:44;;;;;;;0.77;0.70;;;;;;;-145.69;100.00;52377.06;5093995;28;20222;-81
2023/04/28 08:49:15;;;;;;;2.67;1.00;;;;;;;-145.69;100.00;52398.84;5094269;28;20194;-81
2023/04/28 08:51:47;;;;;;;1.65;0.88;;;;;;;-145.69;100.00;52404.78;5094287;28;20585;-82
2023/04/28 08:54:16;;;;;;;0.85;0.80;;;;;;;-145.69;100.00;52369.13;5094686;28;20287;-81
2023/04/28 08:56:44;;;;;;;1.15;0.80;;;;;;;-145.69;100.00;52400.81;5094256;28;20202;-81
2023/04/28 08:59:12;;;;;;;3.08;1.02;;;;;;;-145.69;100.00;52406.75;5094428;28;20206;-82
2023/04/28 09:01:39;;;;;;;2.78;0.93;;;;;;;-145.69;100.00;52398.84;5094308;28;20231;-82
2023/04/28 09:04:05;;;;;;;1.90;1.10;;;;;;;-145.69;100.00;52386.97;5093795;28;20692;-82
2023/04/28 09:06:34;;;;;;;0.80;0.70;;;;;;;-145.69;100.00;52392.91;5094183;28;20205;-81
2023/04/28 09:09:21;;;;;;;0.88;0.75;;;;;;;-145.69;100.00;52406.75;5094258;28;20205;-82
2023/04/28 09:11:52;;;;;;;0.80;0.80;;;;;;;-145.69;100.00;52377.06;5094056;28;20194;-82
2023/04/28 09:14:18;;;;;;;0.50;0.50;;;;;;;-145.69;100.00;52408.75;5094110;28;20228;-81
2023/04/28 09:16:45;;;;;;;0.50;0.50;;;;;;;-145.69;100.00;52381.00;5093855;28;20204;-82
2023/04/28 09:19:13;;;;;;;2.70;0.75;;;;;;;-145.69;100.00;52416.66;5093396;28;20231;-81
2023/04/28 09:21:47;;;;;;;0.80;0.80;;;;;;;-145.69;100.00;52402.78;5093787;28;20209;-82
2023/04/28 09:24:28;;;;;;;1.17;0.80;;;;;;;-145.69;100.00;52408.75;5094038;28;20221;-82
2023/04/28 09:26:54;;;;;;;0.70;0.60;;;;;;;-145.69;100.00;52416.66;5090413;28;20224;-81
2023/04/28 09:29:21;;;;;;;0.50;0.50;;;;;;;-145.69;100.00;52396.84;5091643;28;20212;-81
2023/04/28 09:31:47;;;;;;;0.63;0.60;;;;;;;-145.69;100.00;52377.06;5086895;28;20140;-85
2023/04/28 09:34:14;;;;;;;0.50;0.50;;;;;;;-145.69;100.00;52379.03;5082455;28;20202;-80
2023/04/28 09:36:40;;;;;;;1.42;0.80;;;;;;;-145.69;100.00;52426.56;5093396;28;20652;-84
2023/04/28 09:39:07;;;;;;;1.20;0.77;;;;;;;-145.69;100.00;52365.16;5093598;28;20202;-84
2023/04/28 09:41:39;;;;;;;1.67;0.90;;;;;;;-145.69;100.00;52384.97;5094073;28;20209;-85
2023/04/28 09:44:17;;;;;;;1.85;1.13;;;;;;;-145.69;100.00;52345.38;5092893;28;20584;-81
2023/04/28 09:46:45;;;;;;;1.40;0.90;;;;;;;-145.69;100.00;52398.84;5073132;28;20649;-81
2023/04/28 09:49:12;;;;;;;4.93;2.13;;;;;;;-145.69;100.00;52398.84;5084172;28;20281;-84
2023/04/28 09:51:39;;;;;;;0.63;0.50;;;;;;;-145.69;100.00;52375.06;5086584;28;20191;-82
2023/04/28 09:54:06;;;;;;;1.17;0.90;;;;;;;-145.69;100.00;52416.66;5074486;28;20229;-82
2023/04/28 09:56:37;;;;;;;1.63;1.30;;;;;;;-145.69;100.00;52408.75;5093487;28;20205;-84
2023/04/28 09:59:05;;;;;;;1.60;1.20;;;;;;;-145.69;100.00;52315.66;5093963;28;20206;-83
2023/04/28 10:01:33;;;;;;;1.67;0.88;;;;;;;-145.69;100.00;52369.13;5093075;28;20206;-84
2023/04/28 10:04:01;;;;;;;2.38;0.90;;;;;;;-145.69;100.00;52377.06;5093021;28;20241;-82
2023/04/28 10:06:28;;;;;;;0.60;0.50;;;;;;;-145.69;100.00;52363.19;5094525;28;20190;-84
2023/04/28 10:08:57;;;;;;;2.00;0.50;;;;;;;-145.69;100.00;52359.22;5094289;28;20243;-84
2023/04/28 10:11:24;;;;;;;1.45;0.70;;;;;;;-145.69;100.00;52379.03;5092727;28;20198;-84
2023/04/28 10:13:51;;;;;;;0.60;0.43;;;;;;;-145.69;100.00;52341.41;5094235;28;20198;-83
2023/04/28 10:16:19;;;;;;;1.20;0.50;;;;;;;-145.69;100.00;52383.00;5113082;28;20202;-83
2023/04/28 10:18:46;;;;;;;0.70;0.70;;;;;;;-145.69;100.00;52365.16;5075496;28;20558;-82
2023/04/28 10:21:18;;;;;;;0.50;0.50;;;;;;;-145.69;100.00;52347.34;5083331;28;20190;-83
2023/04/28 10:24:04;;;;;;;0.95;0.85;;;;;;;-145.69;100.00;52373.09;5093925;28;20253;-82
2023/04/28 10:27:03;;;;;;;0.40;0.40;;;;;;;-145.69;100.00;52386.97;5094429;28;20206;-83
2023/04/28 10:29:32;;;;;;;0.80;0.73;;;;;;;-145.69;100.00;52369.13;5074748;28;20202;-83
2023/04/28 10:32:19;;;;;;;0.32;0.32;;;;;;;-145.69;100.00;52359.22;5093004;28;20252;-84
2023/04/28 10:34:47;;;;;;;0.93;0.60;;;;;;;-145.69;100.00;52365.16;5093315;28;20665;-84
2023/04/28 10:37:16;;;;;;;1.75;0.60;;;;;;;-145.69;100.00;52321.59;5093766;28;20197;-84
2023/04/28 10:40:31;;;;;;;0.57;0.40;;;;;;;-145.69;100.00;52377.06;5094604;28;20206;-82
2023/04/28 10:43:05;;;;;;;1.98;0.50;;;;;;;-145.69;100.00;52353.28;5093365;28;20794;-83
2023/04/28 10:46:04;;;;;;;0.40;0.40;;;;;;;-145.69;100.00;52381.00;5093555;28;20576;-83
2023/04/28 10:48:54;;;;;;;0.50;0.50;;;;;;;-145.69;100.00;52329.53;5093751;28;20606;-83
2023/04/28 10:51:23;;;;;;;0.80;0.52;;;;;;;-145.69;100.00;52381.00;5093605;28;20238;-83
2023/04/28 10:54:15;;;;;;;0.77;0.40;;;;;;;-145.69;100.00;52341.41;5093685;28;20241;-82
2023/04/28 10:57:18;;;;;;;0.80;0.60;;;;;;;-145.69;100.00;52357.25;5097274;28;20715;-83
2023/04/28 10:59:46;;;;;;;1.05;0.70;;;;;;;-145.69;100.00;52357.25;5097880;28;20201;-82
2023/04/28 11:02:41;;;;;;;0.68;0.60;;;;;;;-145.69;100.00;52373.09;5098703;28;20202;-84
2023/04/28 11:05:12;;;;;;;1.15;0.50;;;;;;;-145.69;100.00;52375.06;5100883;28;20233;-82
2023/04/28 11:07:38;;;;;;;0.60;0.60;;;;;;;-145.69;100.00;52353.28;5100737;28;20732;-84
2023/04/28 11:10:06;;;;;;;1.48;0.75;;;;;;;-145.69;100.00;52381.00;5099863;28;20198;-83
2023/04/28 11:12:32;;;;;;;0.85;0.70;;;;;;;-145.69;100.00;52404.78;5101211;28;20228;-84
2023/04/28 11:15:11;;;;;;;1.42;0.60;;;;;;;-145.69;100.00;52367.16;5100920;28;20205;-82